D/T METAR WX W/DIR W/SPE G/SPE TEMP DEWP
16/07/19 16:50 EGXC 161550Z 29005KT CAVOK 24/12 Q1017 RMK BLU WNW (290°) 5.8mph 24°C 12°C
16/07/19 16:23 EGXC 161523Z 33004KT CAVOK 24/12 Q1017 NOSIG RMK BLU BLU NNW (330°) 4.6mph 24°C 12°C
16/07/19 15:50 EGXC 161450Z 34007KT 9999 FEW045 BKN100 24/13 Q1017 NOSIG RMK BLU BLU NNW (340°) 8.1mph 24°C 13°C
16/07/19 15:20 EGXC 161420Z 34009KT 9999 FEW045 SCT100 24/13 Q1017 NOSIG RMK BLU BLU NNW (340°) 10.4mph 24°C 13°C
16/07/19 14:50 EGXC 161350Z 31009KT 9999 SCT045 SCT080 23/12 Q1018 NOSIG RMK BLU BLU NW (310°) 10.4mph 23°C 12°C
16/07/19 14:20 EGXC 161320Z 29006KT 9999 BKN045 SCT100 23/12 Q1018 NOSIG RMK BLU BLU WNW (290°) 6.9mph 23°C 12°C
16/07/19 13:50 EGXC 161250Z 30006KT CAVOK 24/12 Q1018 NOSIG RMK BLU BLU WNW (300°) 6.9mph 24°C 12°C
16/07/19 13:22 EGXC 161222Z 28004KT CAVOK 24/12 Q1018 NOSIG RMK BLU BLU W (280°) 4.6mph 24°C 12°C
16/07/19 12:50 EGXC 161150Z 33007KT 9999 FEW045 24/13 Q1018 NOSIG RMK BLU BLU NNW (330°) 8.1mph 24°C 13°C
16/07/19 12:20 EGXC 161120Z 29007KT 9999 SCT040 24/13 Q1018 NOSIG RMK BLU BLU WNW (290°) 8.1mph 24°C 13°C
16/07/19 11:50 EGXC 161050Z 30006KT 9999 SCT040 23/12 Q1018 NOSIG RMK BLU BLU WNW (300°) 6.9mph 23°C 12°C
16/07/19 11:20 EGXC 161020Z 33006KT 9999 FEW040 23/13 Q1018 NOSIG RMK BLU BLU NNW (330°) 6.9mph 23°C 13°C
16/07/19 10:50 EGXC 160950Z 31006KT 9999 FEW035 22/13 Q1018 NOSIG RMK BLU BLU NW (310°) 6.9mph 22°C 13°C
16/07/19 10:20 EGXC 160920Z 31006KT CAVOK 21/14 Q1019 NOSIG RMK BLU BLU NW (310°) 6.9mph 21°C 14°C
16/07/19 09:50 EGXC 160850Z 33005KT CAVOK 20/14 Q1019 NOSIG RMK BLU BLU NNW (330°) 5.8mph 20°C 14°C
16/07/19 09:20 EGXC 160820Z 33007KT CAVOK 19/14 Q1019 NOSIG RMK BLU BLU NNW (330°) 8.1mph 19°C 14°C
16/07/19 08:50 EGXC 160750Z 29004KT CAVOK 18/14 Q1019 NOSIG RMK BLU BLU WNW (290°) 4.6mph 18°C 14°C
16/07/19 08:20 EGXC 160720Z 29005KT CAVOK 17/14 Q1019 NOSIG RMK BLU BLU WNW (290°) 5.8mph 17°C 14°C
16/07/19 07:50 EGXC 160650Z 28006KT CAVOK 15/12 Q1019 NOSIG RMK BLU BLU W (280°) 6.9mph 15°C 12°C
16/07/19 07:20 EGXC 160620Z 30005KT CAVOK 15/12 Q1019 NOSIG RMK BLU BLU WNW (300°) 5.8mph 15°C 12°C
16/07/19 06:50 EGXC 160550Z 25003KT CAVOK 14/12 Q1019 NOSIG RMK BLU BLU WSW (250°) 3.5mph 14°C 12°C
16/07/19 05:50 EGXC 160450Z 27001KT CAVOK 11/11 Q1019 RMK BLU W (270°) 1.2mph 11°C 11°C
16/07/19 04:50 EGXC 160350Z 13002KT 9999 MIFG SCT250 11/10 Q1019 RMK BLU MIFG SE (130°) 2.3mph 11°C 10°C
16/07/19 03:50 EGXC 160250Z 13001KT 9999 MIFG SCT250 11/11 Q1019 RMK BLU MIFG SE (130°) 1.2mph 11°C 11°C
16/07/19 02:50 EGXC 160150Z 11002KT CAVOK 12/11 Q1020 RMK BLU ESE (110°) 2.3mph 12°C 11°C
16/07/19 01:50 EGXC 160050Z 11001KT CAVOK 12/11 Q1020 RMK BLU ESE (110°) 1.2mph 12°C 11°C
16/07/19 00:50 EGXC 152350Z 11004KT CAVOK 13/11 Q1020 RMK BLU ESE (110°) 4.6mph 13°C 11°C
15/07/19 23:50 EGXC 152250Z 10002KT CAVOK 13/11 Q1020 RMK BLU E (100°) 2.3mph 13°C 11°C
15/07/19 22:50 EGXC 152150Z 08004KT CAVOK 14/12 Q1021 RMK BLU E (80°) 4.6mph 14°C 12°C
15/07/19 21:50 EGXC 152050Z 09005KT CAVOK 15/12 Q1020 RMK BLU E (90°) 5.8mph 15°C 12°C
15/07/19 20:50 EGXC 151950Z 09003KT 9999 FEW040 17/13 Q1020 RMK BLU E (90°) 3.5mph 17°C 13°C
15/07/19 19:50 EGXC 151850Z 21004KT 9999 FEW040 21/12 Q1020 RMK BLU SSW (210°) 4.6mph 21°C 12°C
15/07/19 18:50 EGXC 151750Z 28004KT 9999 FEW040 22/12 Q1020 RMK BLU W (280°) 4.6mph 22°C 12°C
15/07/19 17:50 EGXC 151650Z 04003KT 9999 FEW040 22/11 Q1020 RMK BLU NE (40°) 3.5mph 22°C 11°C
15/07/19 16:50 EGXC 151550Z 34006KT 9999 SCT040 21/10 Q1021 RMK BLU NNW (340°) 6.9mph 21°C 10°C
15/07/19 16:22 EGXC 151522Z 06004KT 9999 SCT038 21/11 Q1021 NOSIG RMK BLU BLU ENE (60°) 4.6mph 21°C 11°C
15/07/19 15:50 EGXC 151450Z 10003KT 9999 BKN038 20/11 Q1022 NOSIG RMK BLU BLU E (100°) 3.5mph 20°C 11°C
15/07/19 15:20 EGXC 151420Z 08004KT 9999 BKN038 21/11 Q1022 NOSIG RMK BLU BLU E (80°) 4.6mph 21°C 11°C
15/07/19 14:50 EGXC 151350Z 32003KT 9999 BKN035 20/11 Q1022 NOSIG RMK BLU BLU NW (320°) 3.5mph 20°C 11°C
15/07/19 14:20 EGXC 151320Z 02002KT 9999 SCT030 BKN035 20/11 Q1022 NOSIG RMK BLU BLU NNE (20°) 2.3mph 20°C 11°C
15/07/19 13:50 EGXC 151250Z 01003KT 9999 SCT030 BKN035 18/11 Q1022 NOSIG RMK BLU BLU N (10°) 3.5mph 18°C 11°C
15/07/19 13:18 EGXC 151218Z 31003KT 9999 BKN030 18/11 Q1023 NOSIG RMK BLU BLU NW (310°) 3.5mph 18°C 11°C
15/07/19 12:20 EGXC 151120Z 34004KT 9999 SCT027 BKN035 17/11 Q1023 NOSIG RMK BLU BLU NNW (340°) 4.6mph 17°C 11°C
15/07/19 11:50 EGXC 151050Z 35003KT 9999 SCT025 BKN032 17/11 Q1023 NOSIG RMK BLU BLU N (350°) 3.5mph 17°C 11°C
15/07/19 11:20 EGXC 151020Z 32005KT 9999 SCT025 BKN030 17/11 Q1023 NOSIG RMK BLU BLU NW (320°) 5.8mph 17°C 11°C
15/07/19 10:50 EGXC 150950Z 34005KT 9999 BKN025 16/11 Q1023 NOSIG RMK BLU BLU NNW (340°) 5.8mph 16°C 11°C
15/07/19 10:20 EGXC 150920Z 36003KT 9999 BKN026 16/11 Q1023 NOSIG RMK BLU BLU N (360°) 3.5mph 16°C 11°C
15/07/19 09:20 EGXC 150820Z 35004KT 9999 FEW020 BKN025 16/11 Q1023 NOSIG RMK BLU BLU N (350°) 4.6mph 16°C 11°C